createdAt,value
2022-11-22T00:04:32.764Z,2.5
2022-11-22T00:09:32.978Z,2.5
2022-11-22T00:14:33.184Z,2.2
2022-11-22T00:19:32.382Z,2.2
2022-11-22T00:24:32.439Z,2.2
2022-11-22T00:29:32.681Z,2.2
2022-11-22T00:34:33.000Z,2.2
2022-11-22T00:39:32.795Z,2.2
2022-11-22T00:44:32.317Z,1.8
2022-11-22T00:49:32.991Z,1.8
2022-11-22T00:54:32.755Z,2.2
2022-11-22T00:59:33.145Z,2.2
2022-11-22T01:04:32.660Z,2.2
2022-11-22T01:09:33.142Z,2.2
2022-11-22T01:14:32.532Z,1.8
2022-11-22T01:19:32.946Z,1.8
2022-11-22T01:24:32.908Z,2
2022-11-22T01:29:33.232Z,2
2022-11-22T01:34:32.472Z,2.2
2022-11-22T01:39:33.035Z,2.2
2022-11-22T01:44:32.535Z,1.8
2022-11-22T01:49:32.879Z,1.8
2022-11-22T01:54:32.628Z,1.8
2022-11-22T01:59:33.032Z,1.8
2022-11-22T02:04:32.908Z,1.8
2022-11-22T02:09:32.704Z,1.8
2022-11-22T02:14:32.738Z,2.1
2022-11-22T02:19:32.653Z,2.1
2022-11-22T02:24:33.095Z,2.1
2022-11-22T02:29:33.213Z,2.1
2022-11-22T02:34:32.335Z,2.2
2022-11-22T02:39:33.220Z,2.2
2022-11-22T02:44:32.912Z,2.3
2022-11-22T02:49:32.713Z,2.3
2022-11-22T02:54:32.877Z,2.2
2022-11-22T02:59:32.936Z,2.2
2022-11-22T03:04:32.934Z,2.5
2022-11-22T03:09:33.296Z,2.5
2022-11-22T03:14:32.656Z,1.9
2022-11-22T03:19:33.055Z,1.9
2022-11-22T03:24:32.463Z,1.8
2022-11-22T03:29:32.765Z,1.8
2022-11-22T03:34:33.266Z,1.9
2022-11-22T03:39:32.954Z,1.9
2022-11-22T03:44:32.738Z,1.8
2022-11-22T03:49:32.930Z,1.8
2022-11-22T03:54:33.427Z,1.8
2022-11-22T03:59:32.950Z,1.8
2022-11-22T04:04:33.265Z,2.7
2022-11-22T04:09:33.177Z,2.7
2022-11-22T04:14:33.065Z,2.2
2022-11-22T04:19:33.399Z,2.2
2022-11-22T04:24:32.722Z,1.7
2022-11-22T04:29:33.362Z,1.7
2022-11-22T04:34:32.546Z,2.2
2022-11-22T04:39:33.626Z,2.2
2022-11-22T04:44:32.994Z,1.8
2022-11-22T04:49:33.171Z,1.8
2022-11-22T04:54:32.601Z,1.8
2022-11-22T04:59:32.829Z,1.8
2022-11-22T05:04:33.318Z,2.2
2022-11-22T05:09:32.856Z,2.2
2022-11-22T05:14:32.537Z,1.9
2022-11-22T05:19:32.863Z,1.9
2022-11-22T05:24:33.418Z,1.8
2022-11-22T05:29:33.034Z,1.8
2022-11-22T05:34:32.501Z,1.8
2022-11-22T05:39:33.144Z,1.8
2022-11-22T05:44:33.428Z,1.8
2022-11-22T05:49:33.084Z,1.8
2022-11-22T05:54:32.942Z,1.8
2022-11-22T05:59:33.266Z,1.8
2022-11-22T06:04:32.657Z,1.8
2022-11-22T06:09:32.716Z,1.8
2022-11-22T06:14:32.956Z,1.8
2022-11-22T09:44:32.641Z,1.8
2022-11-22T09:49:33.431Z,1.8
2022-11-22T09:54:33.240Z,2.2
2022-11-22T09:59:33.498Z,2.2
2022-11-22T10:04:33.500Z,1.8
2022-11-22T10:09:33.147Z,1.8
2022-11-22T10:14:33.337Z,2.2
2022-11-22T10:19:32.904Z,2.2
2022-11-22T10:24:33.548Z,1.8
2022-11-22T10:29:33.152Z,1.8
2022-11-22T10:34:32.600Z,2.1
2022-11-22T10:39:34.775Z,2.1
2022-11-22T10:44:33.154Z,1.8
2022-11-22T10:49:33.503Z,1.8
2022-11-22T10:54:32.940Z,1.8
2022-11-22T10:59:33.466Z,1.8
2022-11-22T11:04:33.359Z,1.8
2022-11-22T11:10:10.319Z,1.8
2022-11-22T11:14:33.604Z,1.8
2022-11-22T11:19:33.312Z,1.8
2022-11-22T11:24:33.035Z,1.9
2022-11-22T11:29:37.414Z,1.9
2022-11-22T11:34:33.131Z,1.8
2022-11-22T11:39:32.863Z,1.8
2022-11-22T11:44:33.473Z,1.9
2022-11-22T11:49:33.727Z,1.9
2022-11-22T11:54:33.758Z,1.4
2022-11-22T11:59:33.490Z,1.4
2022-11-22T12:04:33.434Z,1.7
2022-11-22T12:09:33.445Z,1.7
2022-11-22T12:14:55.643Z,1.9
2022-11-22T12:19:33.302Z,1.9
2022-11-22T12:24:52.229Z,1.7
2022-11-22T12:29:33.725Z,1.7
2022-11-22T12:34:33.166Z,1.3
2022-11-22T12:39:32.901Z,1.3
2022-11-22T12:44:33.530Z,1.4
2022-11-22T12:49:32.914Z,1.4
2022-11-22T12:54:33.496Z,1.3
2022-11-22T12:59:33.210Z,1.3
2022-11-22T13:04:33.085Z,1.3
2022-11-22T13:09:32.997Z,1.3
2022-11-22T13:14:33.488Z,1.2
2022-11-22T13:19:33.262Z,1.2
2022-11-22T13:24:33.338Z,1.2
2022-11-22T13:29:33.397Z,1.2
2022-11-22T13:34:34.006Z,1.7
2022-11-22T13:39:33.644Z,1.7
2022-11-22T13:44:33.497Z,1.8
2022-11-22T13:49:37.538Z,1.8
2022-11-22T13:54:34.021Z,1.3
2022-11-22T13:59:33.198Z,1.3
2022-11-22T14:04:33.001Z,1.3
2022-11-22T14:09:33.635Z,1.3
2022-11-22T14:14:33.145Z,1.1
2022-11-22T14:19:33.053Z,1.1
2022-11-22T14:24:33.614Z,1.3
2022-11-22T14:29:33.049Z,1.3
2022-11-22T14:34:33.818Z,1.8
2022-11-22T14:39:33.761Z,1.8
2022-11-22T14:44:33.646Z,1.3
2022-11-22T14:49:33.329Z,1.3
2022-11-22T14:54:33.636Z,1.3
2022-11-22T14:59:33.559Z,1.3
2022-11-22T15:09:18.105Z,1.8
2022-11-22T15:09:46.577Z,1.8
2022-11-22T15:14:33.271Z,1.3
2022-11-22T15:59:33.093Z,1.6
2022-11-22T16:04:33.332Z,2
2022-11-22T16:09:33.530Z,2
2022-11-22T16:14:33.423Z,2
2022-11-22T16:19:33.975Z,2
2022-11-22T16:24:33.508Z,1.8
2022-11-22T16:29:34.049Z,1.8
2022-11-22T16:34:33.152Z,1.5
2022-11-22T16:39:33.875Z,1.5
2022-11-22T16:44:33.863Z,1.8
2022-11-22T16:49:33.730Z,1.8
2022-11-22T16:54:33.554Z,1.8
2022-11-22T16:59:33.623Z,1.8
2022-11-22T17:04:37.899Z,1.3
2022-11-22T17:09:33.620Z,1.3
2022-11-22T17:14:33.118Z,1.8
2022-11-22T17:19:52.592Z,1.8
2022-11-22T17:24:33.552Z,1.8
2022-11-22T17:29:50.570Z,1.8
2022-11-22T17:34:34.052Z,1.8
2022-11-22T17:39:33.847Z,1.8
2022-11-22T17:44:33.684Z,1.9
2022-11-22T17:49:33.274Z,1.9
2022-11-22T17:54:33.390Z,2
2022-11-22T17:59:34.153Z,2
2022-11-22T18:04:33.528Z,2.2
2022-11-22T18:09:34.120Z,2.2
2022-11-22T18:14:34.078Z,1.6
2022-11-22T18:19:33.748Z,1.6
2022-11-22T18:24:33.579Z,1.8
2022-11-22T18:29:42.045Z,1.8
2022-11-22T18:34:33.488Z,2.1
2022-11-22T18:39:34.549Z,2.1
2022-11-22T18:44:33.145Z,1.4
2022-11-22T18:49:34.096Z,1.4
2022-11-22T18:54:33.891Z,1.3
2022-11-22T18:59:34.084Z,1.3
2022-11-22T19:04:33.796Z,1.8
2022-11-22T19:09:33.865Z,1.8
2022-11-22T19:14:33.796Z,1.4
2022-11-22T19:19:33.744Z,1.4
2022-11-22T19:24:33.563Z,1.3
2022-11-22T19:29:34.147Z,1.3
2022-11-22T19:34:33.677Z,1.4
2022-11-22T19:39:33.421Z,1.4
2022-11-22T19:44:33.042Z,1.3
2022-11-22T19:49:33.643Z,1.3
2022-11-22T19:54:33.446Z,1.3
2022-11-22T19:59:34.898Z,1.3
2022-11-22T20:04:33.370Z,1.3
2022-11-22T20:09:33.950Z,1.3
2022-11-22T20:14:33.537Z,1.2
2022-11-22T20:19:34.618Z,1.2
2022-11-22T20:24:33.614Z,1.4
2022-11-22T20:29:33.742Z,1.4
2022-11-22T20:34:33.565Z,1.1
2022-11-22T20:39:33.503Z,1.1
2022-11-22T20:44:33.890Z,1.3
2022-11-22T20:49:33.241Z,1.3
2022-11-22T20:54:33.224Z,1.5
2022-11-22T20:59:33.580Z,1.5
2022-11-22T21:04:33.376Z,1.3
2022-11-22T21:09:33.880Z,1.3
2022-11-22T21:14:33.704Z,0.9
2022-11-22T21:19:33.826Z,0.9
2022-11-22T21:24:33.235Z,1.7
2022-11-22T21:29:33.991Z,1.7
2022-11-22T21:34:33.624Z,1.3
2022-11-22T21:39:33.216Z,1.3
2022-11-22T21:44:33.611Z,1.4
2022-11-22T21:49:33.053Z,1.4
2022-11-22T21:54:33.904Z,1.3
2022-11-22T21:59:33.669Z,1.3
2022-11-22T22:04:33.623Z,0.9
2022-11-22T22:09:34.026Z,0.9
2022-11-22T22:14:33.502Z,0.9
2022-11-22T22:19:33.943Z,0.9
2022-11-22T22:24:33.273Z,0.9
2022-11-22T22:29:33.978Z,0.9
2022-11-22T22:34:33.738Z,1.3
2022-11-22T22:39:34.101Z,1.3
2022-11-22T22:44:33.674Z,1.3
2022-11-22T22:49:34.247Z,1.3
2022-11-22T22:54:34.198Z,1.3
2022-11-22T22:59:33.738Z,1.3
2022-11-22T23:04:33.626Z,0.9
2022-11-22T23:09:33.730Z,0.9
2022-11-22T23:14:33.664Z,0.9
2022-11-22T23:19:34.309Z,0.9
2022-11-22T23:24:34.043Z,0.9
2022-11-22T23:29:33.731Z,0.9
2022-11-22T23:34:33.692Z,0.9
2022-11-22T23:39:34.249Z,0.9
2022-11-22T23:44:33.686Z,0.9
2022-11-22T23:49:34.235Z,0.9
2022-11-22T23:54:34.088Z,0.9
